createdAt,value
2022-07-26T00:00:13.013Z,99.90
2022-07-26T00:02:47.917Z,99.90
2022-07-26T00:05:16.485Z,99.90
2022-07-26T00:07:43.692Z,99.90
2022-07-26T00:10:10.735Z,99.90
2022-07-26T00:12:37.652Z,99.90
2022-07-26T00:15:06.955Z,99.90
2022-07-26T00:17:33.742Z,99.90
2022-07-26T00:20:00.677Z,99.90
2022-07-26T00:22:36.498Z,99.90
2022-07-26T00:25:08.030Z,99.90
2022-07-26T00:27:38.745Z,99.90
2022-07-26T00:30:07.968Z,99.90
2022-07-26T00:32:34.724Z,99.90
2022-07-26T00:35:01.513Z,99.90
2022-07-26T00:37:29.404Z,99.90
2022-07-26T00:39:56.520Z,99.90
2022-07-26T00:42:23.358Z,99.90
2022-07-26T00:44:50.224Z,99.90
2022-07-26T00:47:17.355Z,99.90
2022-07-26T00:49:44.933Z,99.90
2022-07-26T00:52:12.589Z,99.90
2022-07-26T00:54:43.706Z,99.90
2022-07-26T00:57:10.490Z,99.90
2022-07-26T00:59:37.706Z,99.90
2022-07-26T01:02:06.456Z,99.90
2022-07-26T01:04:33.454Z,99.90
2022-07-26T01:07:01.183Z,99.90
2022-07-26T01:09:28.298Z,99.90
2022-07-26T01:11:54.996Z,99.90
2022-07-26T01:14:24.263Z,99.90
2022-07-26T01:16:51.463Z,99.90
2022-07-26T01:19:19.088Z,99.90
2022-07-26T01:21:46.214Z,99.90
2022-07-26T01:24:12.992Z,99.90
2022-07-26T01:26:39.730Z,99.90
2022-07-26T01:29:06.688Z,99.90
2022-07-26T01:31:33.757Z,99.90
2022-07-26T01:34:00.716Z,99.90
2022-07-26T01:36:27.490Z,99.90
2022-07-26T01:38:54.269Z,99.90
2022-07-26T01:41:31.628Z,99.90
2022-07-26T01:44:05.063Z,99.90
2022-07-26T01:46:32.049Z,99.90
2022-07-26T01:48:58.847Z,99.90
2022-07-26T01:51:25.656Z,99.90
2022-07-26T01:53:52.304Z,99.90
2022-07-26T01:56:19.021Z,99.90
2022-07-26T01:58:45.680Z,99.90
2022-07-26T02:01:12.634Z,99.90
2022-07-26T02:03:39.418Z,99.90
2022-07-26T02:06:06.186Z,99.90
2022-07-26T02:08:33.786Z,99.90
2022-07-26T02:11:00.545Z,99.90
2022-07-26T02:13:42.352Z,99.90
2022-07-26T02:16:11.909Z,99.90
2022-07-26T02:18:40.364Z,99.90
2022-07-26T02:21:07.943Z,99.90
2022-07-26T02:23:35.747Z,99.90
2022-07-26T02:26:08.079Z,99.90
2022-07-26T02:28:34.773Z,99.90
2022-07-26T02:31:01.469Z,99.90
2022-07-26T02:33:28.294Z,99.90
2022-07-26T02:35:54.913Z,99.90
2022-07-26T02:38:21.603Z,99.90
2022-07-26T02:40:50.452Z,99.90
2022-07-26T02:43:17.400Z,99.90
2022-07-26T02:45:44.114Z,99.90
2022-07-26T02:48:27.809Z,99.90
2022-07-26T02:50:54.925Z,99.90
2022-07-26T02:53:21.546Z,99.90
2022-07-26T02:55:48.208Z,99.90
2022-07-26T02:58:14.974Z,99.90
2022-07-26T03:00:41.706Z,99.90
2022-07-26T03:03:08.610Z,99.90
2022-07-26T03:05:35.455Z,99.90
2022-07-26T03:08:02.096Z,99.90
2022-07-26T03:10:28.949Z,99.90
2022-07-26T03:12:56.964Z,99.90
2022-07-26T03:15:23.814Z,99.90
2022-07-26T03:17:50.626Z,99.90
2022-07-26T03:20:17.647Z,99.90
2022-07-26T03:22:44.394Z,99.90
2022-07-26T03:25:11.058Z,99.90
2022-07-26T03:27:37.869Z,99.90
2022-07-26T03:30:05.972Z,99.90
2022-07-26T03:32:33.051Z,99.90
2022-07-26T03:34:59.734Z,99.90
2022-07-26T03:37:26.456Z,99.90
2022-07-26T03:40:13.329Z,99.90
2022-07-26T03:42:40.058Z,99.90
2022-07-26T03:45:07.096Z,99.90
2022-07-26T03:47:33.859Z,99.90
2022-07-26T03:50:00.537Z,99.90
2022-07-26T03:52:27.401Z,99.90
2022-07-26T03:54:54.247Z,99.90
2022-07-26T03:57:21.070Z,99.90
2022-07-26T03:59:47.818Z,99.90
2022-07-26T04:02:14.731Z,99.90
2022-07-26T04:04:41.578Z,99.90
2022-07-26T04:07:09.400Z,99.90
2022-07-26T04:09:36.157Z,99.90
2022-07-26T04:12:02.825Z,99.90
2022-07-26T04:14:29.489Z,99.90
2022-07-26T04:16:56.222Z,99.90
2022-07-26T04:19:22.987Z,99.90
2022-07-26T04:21:49.731Z,99.90
2022-07-26T04:24:16.454Z,99.90
2022-07-26T04:26:43.166Z,99.90
2022-07-26T04:29:11.617Z,99.90
2022-07-26T04:31:38.725Z,99.90
2022-07-26T04:34:05.815Z,99.90
2022-07-26T04:36:32.922Z,99.90
2022-07-26T04:38:59.728Z,99.90
2022-07-26T04:41:26.384Z,99.90
2022-07-26T04:43:53.174Z,99.90
2022-07-26T04:46:19.909Z,99.90
2022-07-26T04:48:46.676Z,99.90
2022-07-26T04:51:13.551Z,99.90
2022-07-26T04:53:40.279Z,99.90
2022-07-26T04:56:07.338Z,99.90
2022-07-26T04:58:34.062Z,99.90
2022-07-26T05:01:16.259Z,99.90
2022-07-26T05:03:43.076Z,99.90
2022-07-26T05:06:09.762Z,99.90
2022-07-26T05:08:36.486Z,99.90
2022-07-26T05:11:04.077Z,99.90
2022-07-26T05:13:31.149Z,99.90
2022-07-26T05:15:59.538Z,99.90
2022-07-26T05:18:26.619Z,99.90
2022-07-26T05:20:53.591Z,99.90
2022-07-26T05:23:20.550Z,99.90
2022-07-26T05:25:47.811Z,99.90
2022-07-26T05:28:29.732Z,99.90
2022-07-26T05:30:56.600Z,99.90
2022-07-26T05:33:23.409Z,99.90
2022-07-26T05:35:50.098Z,99.90
2022-07-26T05:38:16.919Z,99.90
2022-07-26T05:40:47.283Z,99.90
2022-07-26T05:43:17.356Z,99.90
2022-07-26T05:45:44.210Z,99.90
2022-07-26T05:48:10.966Z,99.90
2022-07-26T05:50:37.737Z,99.90
2022-07-26T05:53:04.471Z,99.90
2022-07-26T05:55:31.225Z,99.90
2022-07-26T05:57:58.067Z,99.90
2022-07-26T06:00:24.727Z,99.90
2022-07-26T06:02:51.658Z,99.90
2022-07-26T06:05:18.549Z,99.90
2022-07-26T06:07:45.284Z,99.90
2022-07-26T06:10:12.188Z,99.90
2022-07-26T06:12:39.168Z,99.90
2022-07-26T06:15:15.870Z,99.90
2022-07-26T06:17:43.339Z,99.90
2022-07-26T06:20:10.795Z,99.90
2022-07-26T06:22:37.553Z,99.90
2022-07-26T06:25:04.348Z,99.90
2022-07-26T06:27:32.850Z,99.90
2022-07-26T06:29:59.586Z,99.90
2022-07-26T06:32:26.331Z,99.90
2022-07-26T06:34:53.059Z,99.90
2022-07-26T06:37:19.870Z,99.90
2022-07-26T06:39:46.568Z,99.90
2022-07-26T06:42:13.246Z,99.90
2022-07-26T06:44:40.055Z,99.90
2022-07-26T06:47:06.746Z,99.90
2022-07-26T06:49:33.972Z,99.90
2022-07-26T06:52:00.807Z,99.90
2022-07-26T06:54:27.637Z,99.90
2022-07-26T06:56:54.409Z,99.90
2022-07-26T06:59:21.250Z,99.90
2022-07-26T07:01:58.273Z,99.90
2022-07-26T07:04:27.377Z,99.90
2022-07-26T07:06:54.311Z,99.90
2022-07-26T07:09:22.045Z,99.90
2022-07-26T07:11:53.709Z,99.90
2022-07-26T07:14:23.076Z,99.90
2022-07-26T07:16:50.169Z,99.90
2022-07-26T07:19:16.971Z,99.90
2022-07-26T07:21:43.667Z,99.90
2022-07-26T07:24:10.716Z,99.90
2022-07-26T07:26:37.841Z,99.90
2022-07-26T07:29:04.698Z,99.90
2022-07-26T07:31:47.985Z,99.90
2022-07-26T07:34:17.982Z,99.90
2022-07-26T07:36:46.622Z,99.90
2022-07-26T07:39:17.332Z,99.90
2022-07-26T07:41:45.634Z,99.90
2022-07-26T07:44:12.551Z,99.90
2022-07-26T07:46:39.470Z,99.90
2022-07-26T07:49:07.242Z,99.90
2022-07-26T07:51:34.415Z,99.90
2022-07-26T07:54:05.957Z,99.90
2022-07-26T07:56:33.565Z,99.90
2022-07-26T07:59:00.561Z,99.90
2022-07-26T08:01:40.238Z,99.90
2022-07-26T08:04:09.451Z,99.90
2022-07-26T08:06:36.933Z,99.90
2022-07-26T08:09:06.572Z,99.90
2022-07-26T08:11:34.265Z,99.90
2022-07-26T08:14:01.921Z,99.90
2022-07-26T08:16:29.069Z,99.90
2022-07-26T08:18:57.869Z,99.90
2022-07-26T08:21:26.440Z,99.90
2022-07-26T08:24:13.755Z,99.90
2022-07-26T08:26:40.642Z,99.90
2022-07-26T08:29:07.508Z,99.90
2022-07-26T08:31:34.364Z,99.90
2022-07-26T08:34:01.142Z,99.90
2022-07-26T08:36:32.277Z,99.90
2022-07-26T08:39:00.856Z,99.90
2022-07-26T08:41:27.895Z,99.90
2022-07-26T08:43:55.515Z,99.90
2022-07-26T08:46:25.881Z,99.90
2022-07-26T08:48:57.580Z,99.90
2022-07-26T08:51:25.918Z,99.90
2022-07-26T08:54:01.913Z,99.90
2022-07-26T08:56:32.356Z,99.90
2022-07-26T08:58:59.193Z,99.90
2022-07-26T09:01:27.045Z,99.90
2022-07-26T09:03:53.845Z,99.90
2022-07-26T09:06:22.818Z,99.90
2022-07-26T09:09:11.445Z,99.90
2022-07-26T09:11:38.447Z,99.90
2022-07-26T09:14:06.603Z,99.90
2022-07-26T09:16:37.566Z,99.90
2022-07-26T09:19:17.852Z,99.90
2022-07-26T09:21:46.396Z,99.90
2022-07-26T09:24:29.011Z,99.90
2022-07-26T09:27:00.353Z,99.90
2022-07-26T09:29:28.549Z,99.90
2022-07-26T09:32:11.084Z,99.90
2022-07-26T09:34:48.037Z,99.90
2022-07-26T09:37:32.175Z,99.90
2022-07-26T09:40:01.944Z,99.90
2022-07-26T09:42:29.934Z,99.90
2022-07-26T09:44:58.319Z,99.90
2022-07-26T09:47:40.761Z,99.90
2022-07-26T09:50:12.585Z,99.90
2022-07-26T09:52:39.754Z,99.90
2022-07-26T09:55:08.272Z,99.90
2022-07-26T09:57:35.407Z,99.90
2022-07-26T10:00:07.752Z,99.90
2022-07-26T10:02:34.901Z,99.90
2022-07-26T10:05:01.790Z,99.90
2022-07-26T10:07:29.036Z,99.90
2022-07-26T10:10:04.468Z,99.90
2022-07-26T10:12:33.080Z,99.90
2022-07-26T10:15:00.155Z,99.90
2022-07-26T10:17:31.611Z,99.90
2022-07-26T10:20:03.892Z,99.90
2022-07-26T10:22:45.449Z,99.90
2022-07-26T10:25:18.326Z,99.90
2022-07-26T10:27:52.273Z,99.90
2022-07-26T10:30:22.621Z,99.90
2022-07-26T10:33:06.191Z,99.90
2022-07-26T10:35:44.945Z,99.90
2022-07-26T10:38:27.053Z,99.90
2022-07-26T10:40:59.746Z,99.90
2022-07-26T10:43:40.675Z,99.90
2022-07-26T10:46:17.893Z,99.90
2022-07-26T10:49:06.281Z,99.90
2022-07-26T10:51:35.812Z,99.90
2022-07-26T10:54:12.161Z,99.90
2022-07-26T10:56:40.221Z,99.90
2022-07-26T10:59:07.267Z,99.90
2022-07-26T11:01:38.094Z,99.90
2022-07-26T11:04:07.268Z,99.90
2022-07-26T11:06:34.179Z,99.90
2022-07-26T11:09:10.483Z,99.90
2022-07-26T11:11:37.231Z,99.90
2022-07-26T11:14:04.866Z,99.90
2022-07-26T11:16:38.031Z,99.90
2022-07-26T11:19:19.771Z,99.90
2022-07-26T11:21:53.357Z,99.90
2022-07-26T11:24:21.939Z,99.90
2022-07-26T11:26:48.793Z,99.90
2022-07-26T11:29:17.385Z,99.90
2022-07-26T11:31:50.400Z,99.90
2022-07-26T11:34:29.033Z,99.90
2022-07-26T11:36:58.247Z,99.90
2022-07-26T11:39:27.970Z,99.90
2022-07-26T11:41:59.728Z,99.90
2022-07-26T11:44:27.380Z,99.90
2022-07-26T11:46:54.683Z,99.90
2022-07-26T11:49:41.439Z,99.90
2022-07-26T11:52:12.049Z,99.90
2022-07-26T11:54:50.351Z,99.90
2022-07-26T11:57:18.422Z,99.90
2022-07-26T11:59:47.378Z,99.90
2022-07-26T12:02:14.971Z,99.90
2022-07-26T12:04:43.476Z,99.90
2022-07-26T12:07:17.167Z,99.90
2022-07-26T12:09:50.722Z,99.90
2022-07-26T12:12:20.682Z,99.90
2022-07-26T12:14:56.636Z,99.90
2022-07-26T12:17:23.725Z,99.90
2022-07-26T12:19:50.583Z,99.90
2022-07-26T12:22:19.982Z,99.90
2022-07-26T12:24:53.075Z,99.90
2022-07-26T12:27:25.550Z,99.90
2022-07-26T12:30:16.546Z,99.90
2022-07-26T12:32:46.047Z,99.90
2022-07-26T12:35:17.836Z,99.90
2022-07-26T12:37:47.789Z,99.90
2022-07-26T12:40:17.617Z,99.90
2022-07-26T12:42:50.470Z,99.90
2022-07-26T12:45:20.293Z,99.90
2022-07-26T12:47:49.826Z,99.90
2022-07-26T12:50:19.295Z,99.90
2022-07-26T12:52:46.942Z,99.90
2022-07-26T12:55:16.515Z,99.90
2022-07-26T12:57:47.193Z,97.50
2022-07-26T13:00:16.551Z,94.50
2022-07-26T13:02:44.178Z,95.10
2022-07-26T13:05:11.836Z,88.10
2022-07-26T13:07:39.249Z,91.30
2022-07-26T13:10:31.736Z,91.00
2022-07-26T13:12:54.819Z,90.90
2022-07-26T13:15:21.701Z,92.90
2022-07-26T13:17:48.515Z,94.90
2022-07-26T13:20:15.812Z,95.50
2022-07-26T13:22:44.116Z,96.60
2022-07-26T13:25:11.026Z,98.80
2022-07-26T13:27:41.413Z,98.90
2022-07-26T13:30:11.946Z,99.40
2022-07-26T13:32:38.725Z,99.90
2022-07-26T13:35:05.856Z,99.90
2022-07-26T13:37:32.524Z,99.90
2022-07-26T13:39:59.281Z,93.90
2022-07-26T13:42:26.002Z,95.80
2022-07-26T13:44:52.730Z,96.90
2022-07-26T13:47:19.486Z,96.80
2022-07-26T13:49:46.316Z,95.00
2022-07-26T13:52:16.542Z,95.40
2022-07-26T13:54:43.723Z,95.60
2022-07-26T13:57:10.482Z,95.60
2022-07-26T13:59:37.194Z,97.20
2022-07-26T14:02:05.047Z,99.00
2022-07-26T14:04:31.931Z,99.90
2022-07-26T14:06:58.983Z,99.90
2022-07-26T14:09:25.892Z,98.10
2022-07-26T14:11:52.874Z,98.40
2022-07-26T14:14:19.624Z,95.50
2022-07-26T14:16:49.292Z,99.80
2022-07-26T14:19:16.616Z,96.50
2022-07-26T14:21:58.716Z,97.10
2022-07-26T14:24:27.863Z,99.90
2022-07-26T14:26:58.855Z,99.50
2022-07-26T14:29:26.127Z,96.50
2022-07-26T14:31:53.187Z,95.20
2022-07-26T14:34:20.004Z,90.50
2022-07-26T14:36:46.791Z,92.40
2022-07-26T14:39:13.636Z,88.70
2022-07-26T14:41:40.509Z,87.40
2022-07-26T14:44:07.580Z,87.40
2022-07-26T14:46:34.696Z,88.20
2022-07-26T14:49:01.498Z,81.10
2022-07-26T14:51:28.579Z,79.80
2022-07-26T14:53:55.448Z,81.10
2022-07-26T14:56:22.297Z,72.80
2022-07-26T14:58:49.146Z,74.20
2022-07-26T15:01:16.532Z,77.60
2022-07-26T15:03:43.599Z,76.90
2022-07-26T15:06:10.330Z,74.60
2022-07-26T15:08:37.078Z,71.60
2022-07-26T15:11:05.444Z,71.70
2022-07-26T15:13:32.273Z,73.40
2022-07-26T15:15:59.285Z,78.60
2022-07-26T15:18:26.283Z,83.60
2022-07-26T15:20:53.559Z,91.10
2022-07-26T15:23:20.473Z,92.30
2022-07-26T15:25:48.570Z,93.60
2022-07-26T15:28:16.230Z,92.10
2022-07-26T15:30:43.397Z,92.10
2022-07-26T15:33:10.653Z,89.20
2022-07-26T15:35:38.860Z,94.00
2022-07-26T15:38:05.701Z,90.10
2022-07-26T15:40:32.676Z,85.20
2022-07-26T15:42:59.531Z,89.30
2022-07-26T15:45:27.901Z,89.50
2022-07-26T15:48:08.345Z,95.50
2022-07-26T15:50:42.377Z,96.60
2022-07-26T15:53:09.262Z,95.70
2022-07-26T15:55:36.118Z,98.00
2022-07-26T15:58:03.158Z,95.10
2022-07-26T16:00:29.911Z,93.00
2022-07-26T16:02:56.672Z,88.20
2022-07-26T16:05:23.526Z,92.30
2022-07-26T16:07:50.369Z,90.30
2022-07-26T16:10:17.275Z,91.50
2022-07-26T16:12:44.030Z,92.20
2022-07-26T16:15:11.811Z,84.20
2022-07-26T16:17:38.977Z,88.10
2022-07-26T16:20:06.534Z,93.20
2022-07-26T16:22:33.251Z,95.20
2022-07-26T16:25:00.168Z,96.30
2022-07-26T16:27:27.031Z,95.40
2022-07-26T16:29:53.821Z,97.20
2022-07-26T16:32:21.566Z,99.20
2022-07-26T16:34:48.890Z,99.90
2022-07-26T16:37:15.745Z,99.90
2022-07-26T16:39:42.676Z,99.90
2022-07-26T16:42:09.687Z,99.90
2022-07-26T16:44:36.568Z,99.90
2022-07-26T16:47:04.444Z,99.90
2022-07-26T16:49:31.406Z,99.90
2022-07-26T16:51:58.726Z,99.90
2022-07-26T16:54:25.959Z,99.90
2022-07-26T16:56:52.907Z,99.90
2022-07-26T16:59:19.656Z,99.90
2022-07-26T17:01:46.576Z,99.90
2022-07-26T17:04:13.431Z,99.90
2022-07-26T17:06:40.270Z,99.90
2022-07-26T17:09:07.196Z,99.90
2022-07-26T17:11:42.024Z,99.90
2022-07-26T17:14:08.781Z,99.90
2022-07-26T17:16:35.880Z,99.90
2022-07-26T17:19:03.297Z,99.90
2022-07-26T17:21:30.115Z,99.90
2022-07-26T17:23:56.932Z,99.90
2022-07-26T17:26:24.287Z,99.90
2022-07-26T17:28:51.230Z,99.90
2022-07-26T17:31:18.081Z,99.90
2022-07-26T17:33:45.023Z,99.90
2022-07-26T17:36:23.419Z,99.90
2022-07-26T17:38:50.672Z,99.90
2022-07-26T17:41:18.530Z,99.90
2022-07-26T17:43:47.714Z,99.90
2022-07-26T17:46:14.963Z,99.90
2022-07-26T17:48:43.954Z,99.90
2022-07-26T17:51:10.867Z,99.90
2022-07-26T17:53:37.650Z,99.90
2022-07-26T17:56:04.754Z,99.90
2022-07-26T17:58:31.533Z,99.90
2022-07-26T18:00:58.484Z,99.90
2022-07-26T18:03:25.291Z,99.90
2022-07-26T18:05:52.268Z,99.90
2022-07-26T18:08:19.151Z,99.90
2022-07-26T18:10:50.693Z,99.90
2022-07-26T18:13:18.020Z,99.90
2022-07-26T18:15:45.554Z,99.90
2022-07-26T18:18:12.294Z,99.90
2022-07-26T18:20:39.348Z,99.90
2022-07-26T18:23:06.287Z,99.90
2022-07-26T18:25:33.160Z,99.90
2022-07-26T18:28:06.377Z,99.90
2022-07-26T18:30:34.077Z,99.90
2022-07-26T18:33:01.335Z,99.90
2022-07-26T18:35:28.486Z,99.90
2022-07-26T18:37:55.405Z,99.90
2022-07-26T18:40:26.410Z,99.90
2022-07-26T18:42:53.309Z,99.90
2022-07-26T18:45:20.211Z,99.90
2022-07-26T18:47:46.971Z,99.90
2022-07-26T18:50:16.912Z,99.90
2022-07-26T18:52:44.680Z,99.90
2022-07-26T18:55:12.931Z,99.90
2022-07-26T18:57:42.444Z,99.90
2022-07-26T19:00:15.058Z,99.90
2022-07-26T19:02:43.070Z,99.90
2022-07-26T19:05:10.514Z,99.90
2022-07-26T19:07:38.194Z,99.90
2022-07-26T19:10:07.135Z,99.90
2022-07-26T19:12:34.098Z,99.90
2022-07-26T19:15:01.308Z,99.90
2022-07-26T19:17:30.356Z,99.90
2022-07-26T19:20:00.071Z,99.90
2022-07-26T19:22:26.875Z,99.90
2022-07-26T19:24:53.684Z,99.90
2022-07-26T19:27:20.625Z,99.90
2022-07-26T19:29:48.579Z,99.90
2022-07-26T19:32:15.434Z,99.90
2022-07-26T19:34:42.384Z,99.90
2022-07-26T19:37:09.282Z,99.90
2022-07-26T19:39:36.259Z,99.90
2022-07-26T19:42:03.283Z,99.90
2022-07-26T19:44:30.134Z,99.90
2022-07-26T19:46:57.946Z,99.90
2022-07-26T19:49:25.323Z,99.90
2022-07-26T19:51:52.125Z,99.90
2022-07-26T19:54:18.851Z,99.90
2022-07-26T19:56:45.546Z,99.90
2022-07-26T19:59:12.859Z,99.90
2022-07-26T20:01:40.480Z,99.90
2022-07-26T20:04:07.434Z,99.90
2022-07-26T20:06:34.279Z,99.90
2022-07-26T20:09:01.197Z,99.90
2022-07-26T20:11:28.224Z,99.90
2022-07-26T20:13:57.693Z,99.90
2022-07-26T20:16:24.485Z,99.90
2022-07-26T20:18:51.219Z,99.90
2022-07-26T20:21:18.176Z,99.90
2022-07-26T20:23:44.997Z,99.90
2022-07-26T20:26:13.243Z,99.90
2022-07-26T20:28:41.167Z,99.90
2022-07-26T20:31:08.172Z,99.90
2022-07-26T20:33:35.017Z,99.90
2022-07-26T20:36:01.819Z,99.90
2022-07-26T20:38:28.524Z,99.90
2022-07-26T20:40:55.354Z,99.90
2022-07-26T20:43:23.446Z,99.90
2022-07-26T20:45:52.398Z,99.90
2022-07-26T20:48:19.280Z,99.90
2022-07-26T20:50:46.199Z,99.90
2022-07-26T20:53:12.962Z,99.90
2022-07-26T20:55:39.709Z,99.90
2022-07-26T20:58:06.454Z,99.90
2022-07-26T21:00:33.548Z,99.90
2022-07-26T21:03:00.442Z,99.90
2022-07-26T21:05:32.166Z,99.90
2022-07-26T21:07:59.986Z,99.90
2022-07-26T21:10:29.085Z,99.90
2022-07-26T21:12:57.437Z,99.90
2022-07-26T21:15:24.291Z,99.90
2022-07-26T21:17:52.389Z,99.90
2022-07-26T21:20:19.519Z,99.90
2022-07-26T21:22:46.354Z,99.90
2022-07-26T21:25:13.258Z,99.90
2022-07-26T21:27:40.278Z,99.90
2022-07-26T21:30:08.158Z,99.90
2022-07-26T21:32:34.998Z,99.90
2022-07-26T21:35:01.915Z,99.90
2022-07-26T21:37:28.711Z,99.90
2022-07-26T21:39:55.433Z,99.90
2022-07-26T21:42:26.910Z,99.90
2022-07-26T21:44:53.693Z,99.90
2022-07-26T21:47:20.465Z,99.90
2022-07-26T21:49:47.184Z,99.90
2022-07-26T21:52:13.863Z,99.90
2022-07-26T21:54:40.530Z,99.90
2022-07-26T21:57:07.479Z,99.90
2022-07-26T21:59:34.362Z,99.90
2022-07-26T22:02:01.182Z,99.90
2022-07-26T22:04:28.036Z,99.90
2022-07-26T22:06:54.835Z,99.90
2022-07-26T22:09:21.602Z,99.90
2022-07-26T22:11:48.380Z,99.90
2022-07-26T22:14:15.156Z,99.90
2022-07-26T22:16:47.433Z,99.90
2022-07-26T22:19:14.770Z,99.90
2022-07-26T22:21:41.465Z,99.90
2022-07-26T22:24:08.272Z,99.90
2022-07-26T22:26:36.081Z,99.90
2022-07-26T22:29:02.896Z,99.90
2022-07-26T22:31:29.794Z,99.90
2022-07-26T22:33:56.552Z,99.90
2022-07-26T22:36:23.197Z,99.90
2022-07-26T22:38:50.016Z,99.90
2022-07-26T22:41:16.923Z,99.90
2022-07-26T22:43:43.781Z,99.90
2022-07-26T22:46:10.579Z,99.90
2022-07-26T22:48:38.968Z,99.90
2022-07-26T22:51:06.727Z,99.90
2022-07-26T22:53:33.480Z,99.90
2022-07-26T22:56:00.247Z,99.90
2022-07-26T22:58:26.944Z,99.90
2022-07-26T23:00:54.164Z,99.90
2022-07-26T23:03:21.786Z,99.90
2022-07-26T23:05:50.374Z,99.90
2022-07-26T23:08:45.084Z,99.90
2022-07-26T23:11:06.571Z,99.90
2022-07-26T23:13:33.812Z,99.90
2022-07-26T23:16:01.637Z,99.90
2022-07-26T23:18:30.356Z,99.90
2022-07-26T23:20:57.176Z,99.90
2022-07-26T23:23:27.785Z,99.90
2022-07-26T23:25:57.302Z,99.90
2022-07-26T23:28:36.172Z,99.90
2022-07-26T23:31:06.408Z,99.90
2022-07-26T23:33:52.775Z,99.90
2022-07-26T23:36:20.174Z,99.90
2022-07-26T23:38:46.900Z,99.90
2022-07-26T23:41:13.574Z,99.90
2022-07-26T23:43:40.253Z,99.90
2022-07-26T23:46:06.955Z,99.90
2022-07-26T23:48:33.628Z,99.90
2022-07-26T23:51:00.377Z,99.90
2022-07-26T23:53:27.330Z,99.90
2022-07-26T23:55:54.402Z,99.90
2022-07-26T23:58:21.389Z,99.90
